createdAt,value
2022-11-09T00:02:13.153Z,79.90
2022-11-09T00:07:16.796Z,83.84
2022-11-09T00:12:22.208Z,83.13
2022-11-09T00:17:25.732Z,81.85
2022-11-09T00:22:29.275Z,80.72
2022-11-09T00:27:34.225Z,81.13
2022-11-09T00:32:37.650Z,82.92
2022-11-09T00:37:41.102Z,81.45
2022-11-09T00:42:48.194Z,83.32
2022-11-09T00:47:52.621Z,85.60
2022-11-09T00:52:57.022Z,86.34
2022-11-09T00:58:02.029Z,86.36
2022-11-09T01:03:05.525Z,87.96
2022-11-09T01:08:09.397Z,87.74
2022-11-09T01:13:16.421Z,88.44
2022-11-09T01:18:22.464Z,90.18
2022-11-09T01:23:25.908Z,89.70
2022-11-09T01:28:31.226Z,92.07
2022-11-09T01:33:34.949Z,92.47
2022-11-09T01:38:40.390Z,94.27
2022-11-09T01:43:47.140Z,96.11
2022-11-09T01:48:54.576Z,96.95
2022-11-09T01:54:02.318Z,98.19
2022-11-09T01:59:11.489Z,99.75
2022-11-09T02:04:18.472Z,100.00
2022-11-09T02:09:27.882Z,100.00
2022-11-09T02:14:34.394Z,100.00
2022-11-09T02:19:37.824Z,99.29
2022-11-09T02:24:42.646Z,100.00
2022-11-09T02:29:48.734Z,100.00
2022-11-09T02:34:52.360Z,100.00
2022-11-09T02:39:59.835Z,99.28
2022-11-09T02:45:03.502Z,99.24
2022-11-09T02:50:07.619Z,99.03
2022-11-09T02:55:12.782Z,100.00
2022-11-09T03:00:18.483Z,100.00
2022-11-09T03:05:22.095Z,100.00
2022-11-09T03:10:27.294Z,100.00
2022-11-09T03:15:32.138Z,100.00
2022-11-09T03:20:36.220Z,100.00
2022-11-09T03:25:41.336Z,100.00
2022-11-09T03:30:45.639Z,100.00
2022-11-09T03:35:51.265Z,100.00
2022-11-09T03:40:57.468Z,100.00
2022-11-09T03:46:00.942Z,100.00
2022-11-09T03:51:04.455Z,100.00
2022-11-09T03:56:09.733Z,100.00
2022-11-09T04:01:13.325Z,100.00
2022-11-09T04:06:17.059Z,100.00
2022-11-09T04:11:22.011Z,100.00
2022-11-09T04:16:25.644Z,100.00
2022-11-09T04:21:29.286Z,100.00
2022-11-09T04:26:34.188Z,100.00
2022-11-09T04:31:38.263Z,100.00
2022-11-09T04:36:41.727Z,100.00
2022-11-09T04:41:46.937Z,100.00
2022-11-09T04:46:50.562Z,100.00
2022-11-09T04:51:54.436Z,100.00
2022-11-09T04:57:01.233Z,100.00
2022-11-09T05:02:05.346Z,100.00
2022-11-09T05:07:10.300Z,100.00
2022-11-09T05:12:15.920Z,100.00
2022-11-09T05:17:19.624Z,100.00
2022-11-09T05:22:41.497Z,100.00
2022-11-09T05:27:47.138Z,100.00
2022-11-09T05:32:51.461Z,100.00
2022-11-09T05:37:55.730Z,100.00
2022-11-09T05:43:01.531Z,100.00
2022-11-09T05:48:06.368Z,100.00
2022-11-09T05:53:14.255Z,100.00
2022-11-09T05:58:20.778Z,100.00
2022-11-09T06:03:24.478Z,100.00
2022-11-09T06:08:27.977Z,100.00
2022-11-09T06:13:33.353Z,100.00
2022-11-09T06:18:37.857Z,100.00
2022-11-09T06:23:41.475Z,100.00
2022-11-09T06:28:46.352Z,100.00
2022-11-09T06:33:50.973Z,100.00
2022-11-09T06:38:54.833Z,100.00
2022-11-09T06:49:33.486Z,100.00
2022-11-09T06:54:37.220Z,100.00
2022-11-09T06:59:41.169Z,100.00
2022-11-09T07:04:46.220Z,100.00
2022-11-09T07:09:50.067Z,100.00
2022-11-09T07:14:53.938Z,100.00
2022-11-09T07:19:59.129Z,100.00
2022-11-09T07:25:03.066Z,100.00
2022-11-09T07:30:07.891Z,100.00
2022-11-09T07:35:12.850Z,100.00
2022-11-09T07:40:16.618Z,100.00
2022-11-09T07:45:20.300Z,100.00
2022-11-09T07:50:25.469Z,100.00
2022-11-09T07:55:31.211Z,100.00
2022-11-09T08:00:36.774Z,100.00
2022-11-09T08:05:41.809Z,100.00
2022-11-09T08:10:51.539Z,100.00
2022-11-09T08:15:55.095Z,100.00
2022-11-09T08:21:02.714Z,100.00
2022-11-09T08:26:07.457Z,100.00
2022-11-09T08:31:10.969Z,100.00
2022-11-09T08:36:17.603Z,100.00
2022-11-09T08:41:21.029Z,100.00
2022-11-09T08:46:24.477Z,100.00
2022-11-09T08:51:29.413Z,100.00
2022-11-09T08:56:33.209Z,100.00
2022-11-09T09:01:36.829Z,100.00
2022-11-09T09:06:41.693Z,100.00
2022-11-09T09:11:45.247Z,100.00
2022-11-09T09:16:48.762Z,100.00
2022-11-09T09:21:53.884Z,100.00
2022-11-09T09:26:57.342Z,100.00
2022-11-09T09:32:01.246Z,100.00
2022-11-09T09:37:06.069Z,100.00
2022-11-09T09:42:17.285Z,100.00
2022-11-09T09:47:25.964Z,100.00
2022-11-09T09:52:40.255Z,100.00
2022-11-09T09:57:47.433Z,100.00
2022-11-09T10:02:51.211Z,100.00
2022-11-09T10:08:03.971Z,100.00
2022-11-09T10:13:48.437Z,100.00
2022-11-09T10:19:12.387Z,100.00
2022-11-09T10:24:29.106Z,100.00
2022-11-09T10:29:37.078Z,100.00
2022-11-09T10:34:47.671Z,100.00
2022-11-09T10:39:56.539Z,100.00
2022-11-09T10:45:30.760Z,100.00
2022-11-09T10:50:54.067Z,100.00
2022-11-09T10:56:21.746Z,100.00
2022-11-09T11:01:43.943Z,100.00
2022-11-09T11:07:20.620Z,100.00
2022-11-09T11:12:46.648Z,100.00
2022-11-09T11:18:17.397Z,100.00
2022-11-09T11:23:39.283Z,100.00
2022-11-09T11:29:12.347Z,100.00
2022-11-09T11:34:58.981Z,100.00
2022-11-09T11:40:26.771Z,100.00
2022-11-09T11:45:59.489Z,100.00
2022-11-09T11:51:32.529Z,100.00
2022-11-09T11:57:17.338Z,100.00
2022-11-09T12:03:14.939Z,100.00
2022-11-09T12:08:51.829Z,100.00
2022-11-09T12:14:25.487Z,100.00
2022-11-09T12:20:04.395Z,100.00
2022-11-09T12:25:33.084Z,100.00
2022-11-09T12:31:05.869Z,100.00
2022-11-09T12:36:35.942Z,100.00
2022-11-09T12:42:04.497Z,100.00
2022-11-09T12:47:32.667Z,100.00
2022-11-09T12:52:57.166Z,100.00
2022-11-09T12:58:25.023Z,100.00
2022-11-09T13:03:56.286Z,100.00
2022-11-09T13:09:26.538Z,100.00
2022-11-09T13:14:55.138Z,100.00
2022-11-09T13:20:58.051Z,100.00
2022-11-09T13:26:25.968Z,100.00
2022-11-09T13:32:33.578Z,100.00
2022-11-09T13:37:58.019Z,100.00
2022-11-09T13:43:27.370Z,100.00
2022-11-09T13:48:52.177Z,100.00
2022-11-09T13:54:30.053Z,100.00
2022-11-09T13:59:54.201Z,100.00
2022-11-09T14:05:26.352Z,100.00
2022-11-09T14:11:14.893Z,100.00
2022-11-09T14:16:50.092Z,100.00
2022-11-09T14:22:17.086Z,100.00
2022-11-09T14:27:47.680Z,100.00
2022-11-09T14:33:35.050Z,100.00
2022-11-09T14:38:59.900Z,100.00
2022-11-09T14:44:27.152Z,100.00
2022-11-09T14:49:51.480Z,100.00
2022-11-09T14:55:16.328Z,100.00
2022-11-09T15:00:43.186Z,100.00
2022-11-09T15:06:11.281Z,100.00
2022-11-09T15:11:35.980Z,100.00
2022-11-09T15:17:09.104Z,100.00
2022-11-09T15:22:52.527Z,100.00
2022-11-09T15:28:24.610Z,100.00
2022-11-09T15:33:52.710Z,100.00
2022-11-09T15:39:17.779Z,100.00
2022-11-09T15:44:40.125Z,100.00
2022-11-09T15:50:05.669Z,100.00
2022-11-09T15:55:29.297Z,100.00
2022-11-09T16:00:51.066Z,100.00
2022-11-09T16:06:19.074Z,100.00
2022-11-09T16:11:42.699Z,100.00
2022-11-09T16:17:04.718Z,100.00
2022-11-09T16:22:30.952Z,100.00
2022-11-09T16:27:54.800Z,100.00
2022-11-09T16:33:16.760Z,100.00
2022-11-09T16:38:43.782Z,100.00
2022-11-09T16:44:07.869Z,100.00
2022-11-09T16:49:29.616Z,100.00
2022-11-09T16:54:51.686Z,100.00
2022-11-09T17:00:19.819Z,100.00
2022-11-09T17:05:42.550Z,100.00
2022-11-09T17:11:09.132Z,100.00
2022-11-09T17:16:32.895Z,100.00
2022-11-09T17:21:55.057Z,100.00
2022-11-09T17:27:17.292Z,100.00
2022-11-09T17:32:41.477Z,100.00
2022-11-09T17:38:03.414Z,100.00
2022-11-09T17:43:25.799Z,100.00
2022-11-09T17:48:51.253Z,100.00
2022-11-09T17:54:14.759Z,100.00
2022-11-09T17:59:37.303Z,100.00
2022-11-09T18:05:00.568Z,100.00
2022-11-09T18:10:22.542Z,100.00
2022-11-09T18:15:44.674Z,100.00
2022-11-09T18:21:09.753Z,100.00
2022-11-09T18:26:32.887Z,100.00
2022-11-09T18:31:54.763Z,100.00
2022-11-09T18:37:18.111Z,100.00
2022-11-09T18:42:40.159Z,100.00
2022-11-09T18:48:02.366Z,100.00
2022-11-09T18:53:27.519Z,100.00
2022-11-09T18:58:50.997Z,100.00
2022-11-09T19:04:15.415Z,100.00
2022-11-09T19:09:39.617Z,100.00
2022-11-09T19:15:01.660Z,100.00
2022-11-09T19:20:23.836Z,100.00
2022-11-09T19:25:47.284Z,100.00
2022-11-09T19:31:12.821Z,100.00
2022-11-09T19:36:34.947Z,100.00
2022-11-09T19:41:58.732Z,100.00
2022-11-09T19:47:20.764Z,100.00
2022-11-09T19:52:44.742Z,100.00
2022-11-09T19:58:08.293Z,100.00
2022-11-09T20:03:30.654Z,100.00
2022-11-09T20:08:53.972Z,100.00
2022-11-09T20:14:18.303Z,100.00
2022-11-09T20:19:40.266Z,100.00
2022-11-09T20:25:02.762Z,100.00
2022-11-09T20:30:26.430Z,100.00
2022-11-09T20:35:53.291Z,100.00
2022-11-09T20:41:15.524Z,100.00
2022-11-09T20:46:39.312Z,100.00
2022-11-09T20:52:01.388Z,100.00
2022-11-09T20:57:23.459Z,100.00
2022-11-09T21:02:47.428Z,100.00
2022-11-09T21:08:09.514Z,100.00
2022-11-09T21:13:32.675Z,100.00
2022-11-09T21:18:56.459Z,100.00
2022-11-09T21:24:35.786Z,100.00
2022-11-09T21:29:58.371Z,100.00
2022-11-09T21:35:22.258Z,100.00
2022-11-09T21:40:45.114Z,100.00
2022-11-09T21:46:08.008Z,100.00
2022-11-09T21:51:31.846Z,100.00
2022-11-09T21:56:54.376Z,100.00
2022-11-09T22:02:16.119Z,100.00
2022-11-09T22:07:40.063Z,100.00
2022-11-09T22:13:19.558Z,100.00
2022-11-09T22:18:59.451Z,100.00
2022-11-09T22:24:23.000Z,100.00
2022-11-09T22:29:45.205Z,100.00
2022-11-09T22:35:07.696Z,100.00
2022-11-09T22:40:31.135Z,100.00
2022-11-09T22:45:53.192Z,100.00
2022-11-09T22:51:17.374Z,100.00
2022-11-09T22:56:40.977Z,100.00
2022-11-09T23:02:02.886Z,100.00
2022-11-09T23:07:24.975Z,100.00
2022-11-09T23:12:48.423Z,100.00
2022-11-09T23:18:27.799Z,100.00
2022-11-09T23:23:50.810Z,100.00
2022-11-09T23:29:14.395Z,100.00
2022-11-09T23:34:36.588Z,100.00
2022-11-09T23:39:58.752Z,100.00
2022-11-09T23:45:22.604Z,100.00
2022-11-09T23:50:45.861Z,100.00
2022-11-09T23:56:09.953Z,100.00
